createdAt,value
2022-10-16T00:00:36.681Z,78.9855957
2022-10-16T00:01:37.265Z,78.9855957
2022-10-16T00:02:37.759Z,79.08325195
2022-10-16T00:03:38.188Z,79.08325195
2022-10-16T00:04:38.720Z,79.18701172
2022-10-16T00:05:39.270Z,79.38842773
2022-10-16T00:06:40.231Z,79.52880859
2022-10-16T00:08:11.719Z,79.62646484
2022-10-16T00:09:12.173Z,79.62646484
2022-10-16T00:10:12.660Z,79.62646484
2022-10-16T00:11:13.208Z,79.73022461
2022-10-16T00:12:13.680Z,79.62646484
2022-10-16T00:13:14.211Z,79.32739258
2022-10-16T00:14:14.668Z,79.42504883
2022-10-16T00:15:15.119Z,79.52880859
2022-10-16T00:16:15.664Z,79.62646484
2022-10-16T00:17:17.047Z,79.62646484
2022-10-16T00:18:18.500Z,79.52880859
2022-10-16T00:19:19.065Z,79.42504883
2022-10-16T00:20:19.565Z,79.52880859
2022-10-16T00:21:20.085Z,79.62646484
2022-10-16T00:22:22.789Z,79.73022461
2022-10-16T00:23:23.078Z,79.73022461
2022-10-16T00:24:23.568Z,79.73022461
2022-10-16T00:25:24.036Z,79.83398438
2022-10-16T00:26:24.521Z,79.93164063
2022-10-16T00:27:25.745Z,79.93164063
2022-10-16T00:28:26.290Z,79.93164063
2022-10-16T00:29:26.720Z,80.03540039
2022-10-16T00:30:27.228Z,79.93164063
2022-10-16T00:31:27.714Z,80.03540039
2022-10-16T00:32:28.664Z,80.03540039
2022-10-16T00:33:28.900Z,79.93164063
2022-10-16T00:34:29.404Z,79.83398438
2022-10-16T00:35:29.963Z,79.93164063
2022-10-16T00:36:30.478Z,80.03540039
2022-10-16T00:37:31.703Z,80.03540039
2022-10-16T00:38:32.296Z,80.13305664
2022-10-16T00:39:32.935Z,80.23681641
2022-10-16T00:40:33.451Z,80.23681641
2022-10-16T00:41:34.002Z,80.13305664
2022-10-16T00:42:34.498Z,80.13305664
2022-10-16T00:43:35.059Z,80.23681641
2022-10-16T00:44:36.222Z,80.23681641
2022-10-16T00:45:37.048Z,80.13305664
2022-10-16T00:46:37.851Z,80.13305664
2022-10-16T00:47:39.223Z,80.34057617
2022-10-16T00:49:10.181Z,80.23681641
2022-10-16T00:50:10.702Z,80.23681641
2022-10-16T00:51:11.404Z,80.34057617
2022-10-16T00:52:12.533Z,80.34057617
2022-10-16T00:53:13.143Z,80.43823242
2022-10-16T00:54:13.713Z,80.34057617
2022-10-16T00:55:14.238Z,80.43823242
2022-10-16T00:56:14.810Z,80.54199219
2022-10-16T00:58:16.612Z,80.54199219
2022-10-16T00:59:17.197Z,80.54199219
2022-10-16T01:00:17.672Z,80.54199219
2022-10-16T01:01:18.267Z,80.63964844
2022-10-16T01:02:18.798Z,80.54199219
2022-10-16T01:03:19.419Z,80.34057617
2022-10-16T01:04:20.072Z,80.34057617
2022-10-16T01:05:20.813Z,80.54199219
2022-10-16T01:06:21.400Z,80.43823242
2022-10-16T01:07:21.983Z,80.43823242
2022-10-16T01:08:23.635Z,80.34057617
2022-10-16T01:09:25.278Z,80.23681641
2022-10-16T01:10:25.942Z,80.47485352
2022-10-16T01:11:26.546Z,80.57861328
2022-10-16T01:12:27.055Z,80.67626953
2022-10-16T01:13:27.581Z,80.7800293
2022-10-16T01:14:28.283Z,80.67626953
2022-10-16T01:15:28.920Z,80.67626953
2022-10-16T01:16:29.517Z,80.7800293
2022-10-16T01:17:30.759Z,80.7800293
2022-10-16T01:18:31.295Z,80.7800293
2022-10-16T01:19:31.866Z,80.7800293
2022-10-16T01:20:32.510Z,80.88378906
2022-10-16T01:21:33.205Z,80.88378906
2022-10-16T01:22:33.775Z,80.88378906
2022-10-16T01:23:34.300Z,80.7800293
2022-10-16T01:24:34.888Z,80.67626953
2022-10-16T01:25:35.530Z,80.67626953
2022-10-16T01:26:36.144Z,80.7800293
2022-10-16T01:27:37.311Z,80.67626953
2022-10-16T01:28:37.958Z,80.67626953
2022-10-16T01:29:38.332Z,80.67626953
2022-10-16T01:30:39.330Z,80.67626953
2022-10-16T01:32:10.290Z,80.67626953
2022-10-16T01:33:11.036Z,80.67626953
2022-10-16T01:34:11.596Z,80.67626953
2022-10-16T01:35:12.093Z,80.67626953
2022-10-16T01:36:12.610Z,80.47485352
2022-10-16T01:37:13.289Z,80.47485352
2022-10-16T01:38:14.623Z,80.37719727
2022-10-16T01:39:15.264Z,80.47485352
2022-10-16T01:40:15.788Z,80.37719727
2022-10-16T01:41:16.288Z,80.2734375
2022-10-16T01:42:16.800Z,80.37719727
2022-10-16T01:43:17.538Z,80.47485352
2022-10-16T01:44:18.152Z,80.47485352
2022-10-16T01:45:18.789Z,80.67626953
2022-10-16T01:46:19.334Z,80.67626953
2022-10-16T01:47:19.879Z,80.57861328
2022-10-16T01:48:21.178Z,80.67626953
2022-10-16T01:49:21.809Z,80.67626953
2022-10-16T01:50:22.421Z,80.67626953
2022-10-16T01:51:23.043Z,80.81665039
2022-10-16T01:52:23.870Z,80.81665039
2022-10-16T01:53:24.164Z,80.92041016
2022-10-16T01:54:24.765Z,81.02416992
2022-10-16T01:55:25.417Z,81.02416992
2022-10-16T01:56:26.139Z,81.02416992
2022-10-16T01:57:26.766Z,81.02416992
2022-10-16T01:58:27.989Z,81.02416992
2022-10-16T01:59:28.507Z,81.02416992
2022-10-16T02:00:29.160Z,80.81665039
2022-10-16T02:01:29.854Z,80.81665039
2022-10-16T02:02:30.500Z,81.02416992
2022-10-16T02:03:31.039Z,81.12182617
2022-10-16T02:04:31.558Z,80.92041016
2022-10-16T02:05:32.104Z,81.02416992
2022-10-16T02:06:32.865Z,81.02416992
2022-10-16T02:07:33.558Z,80.81665039
2022-10-16T02:08:35.151Z,80.92041016
2022-10-16T02:09:35.719Z,81.12182617
2022-10-16T02:10:36.350Z,81.12182617
2022-10-16T02:11:36.889Z,81.32324219
2022-10-16T02:12:37.593Z,81.32324219
2022-10-16T02:13:38.269Z,81.5246582
2022-10-16T02:15:10.240Z,81.5246582
2022-10-16T02:16:10.751Z,81.5246582
2022-10-16T02:17:11.304Z,81.5246582
2022-10-16T02:18:12.771Z,81.62841797
2022-10-16T02:19:13.422Z,81.32324219
2022-10-16T02:20:14.077Z,81.32324219
2022-10-16T02:21:14.752Z,81.42700195
2022-10-16T02:22:16.229Z,81.42700195
2022-10-16T02:23:16.727Z,81.32324219
2022-10-16T02:24:17.501Z,81.22558594
2022-10-16T02:25:18.142Z,81.22558594
2022-10-16T02:26:18.749Z,81.22558594
2022-10-16T02:27:19.285Z,81.08520508
2022-10-16T02:28:20.799Z,80.98144531
2022-10-16T02:29:21.479Z,80.98144531
2022-10-16T02:30:22.155Z,80.98144531
2022-10-16T02:31:22.818Z,80.98144531
2022-10-16T02:32:23.713Z,80.88378906
2022-10-16T02:33:24.016Z,80.98144531
2022-10-16T02:34:24.582Z,80.98144531
2022-10-16T02:35:25.260Z,80.88378906
2022-10-16T02:36:25.909Z,80.7800293
2022-10-16T02:37:26.601Z,80.67626953
2022-10-16T02:38:27.754Z,80.57861328
2022-10-16T02:39:28.340Z,80.57861328
2022-10-16T02:40:28.858Z,80.47485352
2022-10-16T02:41:29.617Z,80.67626953
2022-10-16T02:42:30.268Z,80.57861328
2022-10-16T02:43:30.899Z,80.57861328
2022-10-16T02:44:31.492Z,80.47485352
2022-10-16T02:45:32.193Z,80.47485352
2022-10-16T02:46:32.903Z,80.37719727
2022-10-16T02:47:33.618Z,80.47485352
2022-10-16T02:48:35.080Z,80.2734375
2022-10-16T02:49:35.747Z,80.07202148
2022-10-16T02:50:36.260Z,80.07202148
2022-10-16T02:51:36.862Z,79.96826172
2022-10-16T02:52:37.655Z,79.87060547
2022-10-16T02:54:08.917Z,79.7668457
2022-10-16T02:55:09.564Z,79.56542969
2022-10-16T02:56:10.185Z,79.7668457
2022-10-16T02:57:10.604Z,79.87060547
2022-10-16T02:58:11.834Z,79.96826172
2022-10-16T02:59:12.470Z,79.96826172
2022-10-16T03:00:13.184Z,79.87060547
2022-10-16T03:01:13.826Z,80.17578125
2022-10-16T03:02:14.249Z,80.47485352
2022-10-16T03:03:14.775Z,80.57861328
2022-10-16T03:04:15.500Z,80.37719727
2022-10-16T03:05:16.296Z,80.37719727
2022-10-16T03:06:16.780Z,80.2734375
2022-10-16T03:07:17.323Z,80.21240234
2022-10-16T03:08:18.731Z,80.41381836
2022-10-16T03:09:19.250Z,80.51757813
2022-10-16T03:10:19.922Z,80.71899414
2022-10-16T03:11:20.900Z,80.92041016
2022-10-16T03:12:22.242Z,81.02416992
2022-10-16T03:13:22.777Z,81.12182617
2022-10-16T03:14:23.305Z,81.22558594
2022-10-16T03:15:23.907Z,81.22558594
2022-10-16T03:16:24.546Z,81.12182617
2022-10-16T03:17:25.338Z,81.12182617
2022-10-16T03:18:26.716Z,81.22558594
2022-10-16T03:19:27.252Z,81.22558594
2022-10-16T03:20:27.821Z,81.12182617
2022-10-16T03:21:28.426Z,80.88378906
2022-10-16T03:22:29.141Z,80.67626953
2022-10-16T03:24:30.478Z,80.37719727
2022-10-16T03:25:31.058Z,80.2734375
2022-10-16T03:26:31.680Z,80.17578125
2022-10-16T03:27:32.486Z,80.07202148
2022-10-16T03:28:33.872Z,79.96826172
2022-10-16T03:29:34.483Z,79.96826172
2022-10-16T03:30:35.034Z,80.07202148
2022-10-16T03:31:35.670Z,80.07202148
2022-10-16T03:33:36.986Z,80.07202148
2022-10-16T03:35:08.369Z,80.17578125
2022-10-16T03:36:08.975Z,80.17578125
2022-10-16T03:37:09.551Z,80.17578125
2022-10-16T03:38:10.768Z,80.2734375
2022-10-16T03:39:12.318Z,80.47485352
2022-10-16T03:40:13.009Z,80.47485352
2022-10-16T03:41:13.649Z,80.47485352
2022-10-16T03:42:14.290Z,80.57861328
2022-10-16T03:44:15.589Z,80.57861328
2022-10-16T03:45:16.761Z,80.67626953
2022-10-16T03:46:17.411Z,80.67626953
2022-10-16T03:47:17.904Z,80.67626953
2022-10-16T03:48:18.411Z,80.67626953
2022-10-16T03:49:19.489Z,80.7800293
2022-10-16T03:50:20.229Z,80.57861328
2022-10-16T03:51:20.845Z,80.47485352
2022-10-16T03:52:21.502Z,80.47485352
2022-10-16T03:53:22.064Z,80.37719727
2022-10-16T03:54:22.593Z,80.37719727
2022-10-16T03:55:23.116Z,80.47485352
2022-10-16T03:56:23.780Z,80.47485352
2022-10-16T03:57:24.788Z,80.47485352
2022-10-16T03:58:25.028Z,80.37719727
2022-10-16T03:59:26.477Z,80.37719727
2022-10-16T04:00:26.988Z,80.37719727
2022-10-16T04:01:27.644Z,80.37719727
2022-10-16T04:02:28.246Z,80.2734375
2022-10-16T04:03:28.834Z,80.17578125
2022-10-16T04:04:29.429Z,80.07202148
2022-10-16T04:05:29.953Z,79.96826172
2022-10-16T04:06:30.481Z,79.96826172
2022-10-16T04:07:31.144Z,80.07202148
2022-10-16T04:08:31.779Z,80.17578125
2022-10-16T04:09:33.108Z,80.2734375
2022-10-16T04:10:33.616Z,80.37719727
2022-10-16T04:11:34.126Z,80.37719727
2022-10-16T04:12:34.650Z,80.2734375
2022-10-16T04:13:35.315Z,80.2734375
2022-10-16T04:14:36.073Z,80.17578125
2022-10-16T04:15:37.781Z,80.07202148
2022-10-16T04:17:08.626Z,80.07202148
2022-10-16T04:18:09.157Z,80.37719727
2022-10-16T04:19:10.584Z,80.47485352
2022-10-16T04:20:11.260Z,80.47485352
2022-10-16T04:21:11.889Z,80.37719727
2022-10-16T04:22:12.490Z,80.37719727
2022-10-16T04:23:13.155Z,80.37719727
2022-10-16T04:24:13.825Z,80.47485352
2022-10-16T04:25:14.596Z,80.57861328
2022-10-16T04:26:15.251Z,80.47485352
2022-10-16T04:27:15.893Z,80.57861328
2022-10-16T04:28:16.531Z,80.57861328
2022-10-16T04:29:18.037Z,80.47485352
2022-10-16T04:30:18.724Z,80.47485352
2022-10-16T04:31:19.415Z,80.47485352
2022-10-16T04:32:20.093Z,80.57861328
2022-10-16T04:33:20.864Z,80.57861328
2022-10-16T04:34:21.458Z,80.61523438
2022-10-16T04:35:22.068Z,80.57861328
2022-10-16T04:36:24.374Z,80.47485352
2022-10-16T04:37:23.687Z,80.37719727
2022-10-16T04:38:24.170Z,80.41381836
2022-10-16T04:39:25.579Z,80.47485352
2022-10-16T04:40:26.112Z,80.67626953
2022-10-16T04:41:26.705Z,80.67626953
2022-10-16T04:42:27.452Z,80.67626953
2022-10-16T04:44:28.855Z,80.57861328
2022-10-16T04:45:29.365Z,80.47485352
2022-10-16T04:46:30.761Z,80.47485352
2022-10-16T04:47:31.404Z,80.37719727
2022-10-16T04:48:32.110Z,80.2734375
2022-10-16T04:49:33.628Z,80.2734375
2022-10-16T04:50:34.251Z,80.37719727
2022-10-16T04:51:34.873Z,80.37719727
2022-10-16T04:53:36.226Z,80.37719727
2022-10-16T04:55:07.269Z,80.37719727
2022-10-16T04:56:07.886Z,80.37719727
2022-10-16T04:57:08.411Z,80.37719727
2022-10-16T04:58:09.002Z,80.37719727
2022-10-16T04:59:10.381Z,80.37719727
2022-10-16T05:00:10.988Z,80.2734375
2022-10-16T05:01:11.646Z,80.17578125
2022-10-16T05:02:12.269Z,80.07202148
2022-10-16T05:03:12.929Z,80.07202148
2022-10-16T05:04:13.409Z,80.07202148
2022-10-16T05:05:14.093Z,80.07202148
2022-10-16T05:06:14.745Z,80.21240234
2022-10-16T05:07:15.431Z,80.21240234
2022-10-16T05:08:15.966Z,80.31005859
2022-10-16T05:09:17.262Z,80.31005859
2022-10-16T05:10:17.792Z,80.21240234
2022-10-16T05:11:18.462Z,80.21240234
2022-10-16T05:12:19.137Z,80.41381836
2022-10-16T05:13:19.838Z,80.41381836
2022-10-16T05:14:20.670Z,80.61523438
2022-10-16T05:15:21.227Z,80.61523438
2022-10-16T05:16:22.740Z,80.71899414
2022-10-16T05:17:23.956Z,80.71899414
2022-10-16T05:18:24.107Z,80.61523438
2022-10-16T05:19:27.625Z,80.41381836
2022-10-16T05:20:25.838Z,80.41381836
2022-10-16T05:21:26.470Z,80.41381836
2022-10-16T05:22:27.105Z,80.21240234
2022-10-16T05:23:27.743Z,80.21240234
2022-10-16T05:24:28.351Z,80.41381836
2022-10-16T05:25:28.961Z,80.31005859
2022-10-16T05:26:29.622Z,80.21240234
2022-10-16T05:27:30.257Z,80.31005859
2022-10-16T05:28:31.818Z,80.41381836
2022-10-16T05:29:33.299Z,80.41381836
2022-10-16T05:30:33.858Z,80.41381836
2022-10-16T05:31:34.389Z,80.21240234
2022-10-16T05:32:34.931Z,80.21240234
2022-10-16T05:33:35.524Z,80.41381836
2022-10-16T05:35:10.083Z,80.51757813
2022-10-16T05:36:07.403Z,80.61523438
2022-10-16T05:37:07.945Z,80.61523438
2022-10-16T05:38:09.311Z,80.51757813
2022-10-16T05:39:09.931Z,80.51757813
2022-10-16T05:40:11.127Z,80.51757813
2022-10-16T05:41:11.806Z,80.61523438
2022-10-16T05:42:12.493Z,80.61523438
2022-10-16T05:43:13.084Z,80.61523438
2022-10-16T05:44:14.563Z,80.61523438
2022-10-16T05:45:15.244Z,80.61523438
2022-10-16T05:46:15.851Z,80.71899414
2022-10-16T05:47:16.562Z,80.71899414
2022-10-16T05:48:17.184Z,80.71899414
2022-10-16T05:49:19.249Z,80.61523438
2022-10-16T05:50:20.026Z,80.51757813
2022-10-16T05:51:20.967Z,80.51757813
2022-10-16T05:52:21.723Z,80.51757813
2022-10-16T05:53:22.418Z,80.71899414
2022-10-16T05:54:23.597Z,80.81665039
2022-10-16T05:55:24.196Z,80.71899414
2022-10-16T05:56:24.775Z,80.51757813
2022-10-16T05:57:25.964Z,80.51757813
2022-10-16T05:58:26.335Z,80.31005859
2022-10-16T05:59:27.803Z,80.21240234
2022-10-16T06:00:28.390Z,80.31005859
2022-10-16T06:01:29.059Z,80.31005859
2022-10-16T06:02:29.675Z,80.41381836
2022-10-16T06:03:30.375Z,80.51757813
2022-10-16T06:04:31.094Z,80.51757813
2022-10-16T06:05:31.714Z,80.41381836
2022-10-16T06:06:32.297Z,80.10864258
2022-10-16T06:07:32.914Z,80.21240234
2022-10-16T06:08:33.631Z,80.21240234
2022-10-16T06:09:34.852Z,80.10864258
2022-10-16T06:11:06.302Z,80.21240234
2022-10-16T06:12:06.850Z,80.21240234
2022-10-16T06:13:07.439Z,80.01098633
2022-10-16T06:14:08.155Z,79.90722656
2022-10-16T06:15:08.799Z,79.70581055
2022-10-16T06:16:09.514Z,79.50439453
2022-10-16T06:17:11.108Z,79.40063477
2022-10-16T06:18:11.661Z,79.296875
2022-10-16T06:19:12.282Z,79.40063477
2022-10-16T06:20:13.734Z,79.50439453
2022-10-16T06:21:14.430Z,79.40063477
2022-10-16T06:22:15.166Z,79.296875
2022-10-16T06:23:15.729Z,79.19921875
2022-10-16T06:24:16.265Z,78.89404297
2022-10-16T06:25:16.845Z,78.89404297
2022-10-16T06:26:17.599Z,79.09545898
2022-10-16T06:27:18.261Z,79.09545898
2022-10-16T06:28:19.038Z,78.99780273
2022-10-16T06:29:19.523Z,78.7902832
2022-10-16T06:30:21.134Z,78.7902832
2022-10-16T06:31:22.024Z,78.69262695
2022-10-16T06:32:22.714Z,78.89404297
2022-10-16T06:33:23.465Z,78.7902832
2022-10-16T06:34:24.040Z,78.89404297
2022-10-16T06:35:24.664Z,78.99780273
2022-10-16T06:36:25.383Z,79.09545898
2022-10-16T06:37:26.412Z,78.7902832
2022-10-16T06:38:26.886Z,78.7902832
2022-10-16T06:39:27.623Z,78.7902832
2022-10-16T06:40:29.087Z,78.7902832
2022-10-16T06:41:29.723Z,78.96118164
2022-10-16T06:42:30.407Z,78.75366211
2022-10-16T06:43:31.173Z,78.75366211
2022-10-16T06:44:31.825Z,78.85742188
2022-10-16T06:45:32.508Z,78.85742188
2022-10-16T06:46:33.756Z,78.89404297
2022-10-16T06:47:34.312Z,79.09545898
2022-10-16T06:48:35.357Z,79.296875
2022-10-16T06:50:07.126Z,79.296875
2022-10-16T06:51:08.077Z,79.40063477
2022-10-16T06:52:08.440Z,79.296875
2022-10-16T06:53:09.022Z,79.40063477
2022-10-16T06:54:10.739Z,79.50439453
2022-10-16T06:55:11.360Z,79.8034668
2022-10-16T06:56:12.056Z,80.21240234
2022-10-16T06:57:12.735Z,80.45043945
2022-10-16T06:58:13.303Z,80.55419922
2022-10-16T06:59:13.897Z,80.65185547
2022-10-16T07:00:15.180Z,80.55419922
2022-10-16T07:01:15.806Z,80.51757813
2022-10-16T07:02:16.494Z,80.51757813
2022-10-16T07:03:17.123Z,80.51757813
2022-10-16T07:04:17.730Z,80.41381836
2022-10-16T07:05:18.255Z,80.31005859
2022-10-16T07:06:18.945Z,80.41381836
2022-10-16T07:07:19.572Z,80.41381836
2022-10-16T07:08:20.206Z,80.41381836
2022-10-16T07:09:20.982Z,80.21240234
2022-10-16T07:10:22.169Z,80.41381836
2022-10-16T07:11:22.760Z,80.31005859
2022-10-16T07:12:23.763Z,80.51757813
2022-10-16T07:13:24.102Z,80.51757813
2022-10-16T07:14:24.785Z,80.51757813
2022-10-16T07:15:25.297Z,80.31005859
2022-10-16T07:16:25.813Z,80.21240234
2022-10-16T07:17:27.003Z,79.96826172
2022-10-16T07:18:27.678Z,79.96826172
2022-10-16T07:19:31.920Z,80.07202148
2022-10-16T07:20:29.654Z,80.07202148
2022-10-16T07:21:30.241Z,79.96826172
2022-10-16T07:22:30.810Z,79.46166992
2022-10-16T07:23:31.479Z,79.36401367
2022-10-16T07:24:32.137Z,79.26025391
2022-10-16T07:25:32.834Z,79.36401367
2022-10-16T07:26:33.478Z,79.36401367
2022-10-16T07:27:34.922Z,79.26025391
2022-10-16T07:29:05.710Z,79.22363281
2022-10-16T07:30:09.150Z,79.22363281
2022-10-16T07:31:08.037Z,79.0222168
2022-10-16T07:32:08.658Z,78.515625
2022-10-16T07:33:09.243Z,78.515625
2022-10-16T07:34:09.815Z,78.61938477
2022-10-16T07:35:10.618Z,78.61938477
2022-10-16T07:36:15.848Z,78.61938477
2022-10-16T07:37:11.905Z,78.71704102
2022-10-16T07:38:13.325Z,78.61938477
2022-10-16T07:39:13.859Z,78.515625
2022-10-16T07:40:15.314Z,78.41796875
2022-10-16T07:41:16.071Z,78.41796875
2022-10-16T07:42:16.812Z,78.41796875
2022-10-16T07:43:17.475Z,78.11279297
2022-10-16T07:44:18.032Z,78.31420898
2022-10-16T07:45:18.582Z,78.41796875
2022-10-16T07:46:19.244Z,78.31420898
2022-10-16T07:47:20.979Z,78.41796875
2022-10-16T07:48:21.709Z,78.61938477
2022-10-16T07:49:22.292Z,78.75366211
2022-10-16T07:50:23.772Z,78.96118164
2022-10-16T07:51:24.357Z,79.05883789
2022-10-16T07:52:25.020Z,79.16259766
2022-10-16T07:53:27.055Z,79.05883789
2022-10-16T07:54:27.139Z,78.96118164
2022-10-16T07:55:27.700Z,78.96118164
2022-10-16T07:56:28.318Z,79.05883789
2022-10-16T07:57:29.172Z,79.0222168
2022-10-16T07:58:29.587Z,79.05883789
2022-10-16T07:59:30.257Z,79.16259766
2022-10-16T08:00:31.665Z,79.26025391
2022-10-16T08:01:32.286Z,79.26025391
2022-10-16T08:02:32.906Z,79.0222168
2022-10-16T08:03:33.540Z,78.82080078
2022-10-16T08:05:05.538Z,78.75366211
2022-10-16T08:06:06.171Z,78.96118164
2022-10-16T08:07:06.731Z,79.26025391
2022-10-16T08:08:07.391Z,79.36401367
2022-10-16T08:09:07.931Z,79.26025391
2022-10-16T08:10:09.316Z,79.26025391
2022-10-16T08:11:09.964Z,79.26025391
2022-10-16T08:12:10.583Z,79.36401367
2022-10-16T08:13:11.153Z,79.46166992
2022-10-16T08:14:12.541Z,79.46166992
2022-10-16T08:15:13.241Z,79.46166992
2022-10-16T08:16:13.894Z,79.56542969
2022-10-16T08:17:14.555Z,79.46166992
2022-10-16T08:18:15.230Z,79.46166992
2022-10-16T08:19:16.568Z,79.56542969
2022-10-16T08:20:17.787Z,79.56542969
2022-10-16T08:21:20.468Z,79.46166992
2022-10-16T08:22:19.083Z,79.56542969
2022-10-16T08:23:19.702Z,79.56542969
2022-10-16T08:24:20.594Z,79.56542969
2022-10-16T08:25:21.120Z,79.56542969
2022-10-16T08:26:21.722Z,79.56542969
2022-10-16T08:27:22.480Z,79.56542969
2022-10-16T08:28:24.245Z,79.56542969
2022-10-16T08:29:24.790Z,79.66918945
2022-10-16T08:30:26.260Z,79.66918945
2022-10-16T08:31:26.846Z,79.66918945
2022-10-16T08:32:27.694Z,79.56542969
2022-10-16T08:33:28.064Z,79.66918945
2022-10-16T08:34:29.580Z,79.7668457
2022-10-16T08:35:30.156Z,79.66918945
2022-10-16T08:36:31.282Z,79.66918945
2022-10-16T08:37:31.925Z,79.66918945
2022-10-16T08:38:32.533Z,79.46166992
2022-10-16T08:40:04.391Z,79.42504883
2022-10-16T08:41:05.499Z,79.42504883
2022-10-16T08:42:06.761Z,79.42504883
2022-10-16T08:43:07.456Z,79.42504883
2022-10-16T08:44:08.067Z,79.52880859
2022-10-16T08:45:08.705Z,79.42504883
2022-10-16T08:46:09.191Z,79.42504883
2022-10-16T08:47:09.670Z,79.22363281
2022-10-16T08:48:10.434Z,79.0222168
2022-10-16T08:49:10.952Z,79.0222168
2022-10-16T08:50:11.613Z,78.71704102
2022-10-16T08:51:13.087Z,78.71704102
2022-10-16T08:52:13.607Z,78.91845703
2022-10-16T08:53:14.108Z,78.91845703
2022-10-16T08:54:14.797Z,78.88183594
2022-10-16T08:55:15.450Z,78.47900391
2022-10-16T08:56:16.054Z,78.58276367
2022-10-16T08:57:21.249Z,78.07617188
2022-10-16T08:58:17.576Z,77.56958008
2022-10-16T08:59:18.183Z,77.36816406
2022-10-16T09:00:18.774Z,77.2644043
2022-10-16T09:01:20.188Z,77.06298828
2022-10-16T09:02:20.835Z,76.96533203
2022-10-16T09:03:21.301Z,77.16674805
2022-10-16T09:04:21.878Z,77.2644043
2022-10-16T09:05:22.586Z,76.96533203
2022-10-16T09:06:23.451Z,76.51977539
2022-10-16T09:07:24.010Z,76.31835938
2022-10-16T09:08:24.520Z,76.51977539
2022-10-16T09:09:25.167Z,76.51977539
2022-10-16T09:10:26.873Z,76.31835938
2022-10-16T09:11:27.516Z,76.11694336
2022-10-16T09:12:29.197Z,75.91552734
2022-10-16T09:13:29.393Z,75.91552734
2022-10-16T09:14:29.953Z,75.91552734
2022-10-16T09:15:30.643Z,75.61035156
2022-10-16T09:16:31.318Z,75.71411133
2022-10-16T09:17:32.859Z,75.51269531
2022-10-16T09:19:03.812Z,75.71411133
2022-10-16T09:20:04.334Z,75.87890625
2022-10-16T09:21:05.667Z,76.08032227
2022-10-16T09:22:06.305Z,75.87890625
2022-10-16T09:23:07.224Z,75.78125
2022-10-16T09:24:07.897Z,75.57373047
2022-10-16T09:25:08.326Z,75.67749023
2022-10-16T09:26:08.985Z,75.57373047
2022-10-16T09:27:10.207Z,75.67749023
2022-10-16T09:28:10.909Z,75.94604492
2022-10-16T09:29:12.090Z,75.43945313
2022-10-16T09:30:12.533Z,75.13427734
2022-10-16T09:31:14.208Z,74.83520508
2022-10-16T09:32:14.977Z,74.12719727
2022-10-16T09:33:15.694Z,73.92578125
2022-10-16T09:34:16.304Z,73.82202148
2022-10-16T09:35:16.895Z,73.82202148
2022-10-16T09:36:17.409Z,73.58398438
2022-10-16T09:37:18.092Z,72.97973633
2022-10-16T09:38:18.790Z,72.97973633
2022-10-16T09:39:19.486Z,72.88208008
2022-10-16T09:40:19.960Z,72.77832031
2022-10-16T09:41:21.070Z,72.77832031
2022-10-16T09:42:21.788Z,72.77832031
2022-10-16T09:43:22.443Z,73.08349609
2022-10-16T09:44:23.094Z,72.74780273
2022-10-16T09:45:24.260Z,72.94921875
2022-10-16T09:46:24.773Z,73.15063477
2022-10-16T09:47:25.564Z,72.94921875
2022-10-16T09:48:25.997Z,73.15063477
2022-10-16T09:49:27.128Z,73.046875
2022-10-16T09:50:27.690Z,72.74780273
2022-10-16T09:51:28.241Z,72.94921875
2022-10-16T09:52:29.516Z,73.046875
2022-10-16T09:53:30.547Z,73.046875
2022-10-16T09:54:31.129Z,72.84545898
2022-10-16T09:55:31.722Z,72.64404297
2022-10-16T09:56:32.251Z,73.21777344
2022-10-16T09:58:04.320Z,73.5168457
2022-10-16T09:59:05.103Z,73.31542969
2022-10-16T10:00:05.976Z,73.5168457
2022-10-16T10:01:07.355Z,73.5168457
2022-10-16T10:02:08.061Z,73.11401367
2022-10-16T10:03:08.546Z,73.5168457
2022-10-16T10:04:09.037Z,73.71826172
2022-10-16T10:05:09.773Z,73.31542969
2022-10-16T10:06:10.623Z,72.80883789
2022-10-16T10:07:11.294Z,72.50976563
2022-10-16T10:08:11.796Z,72.5769043
2022-10-16T10:09:12.414Z,72.87597656
2022-10-16T10:10:13.142Z,72.87597656
2022-10-16T10:11:16.122Z,72.97973633
2022-10-16T10:12:15.127Z,73.38256836
2022-10-16T10:13:15.734Z,73.48022461
2022-10-16T10:14:16.229Z,73.58398438
2022-10-16T10:15:16.879Z,73.48022461
2022-10-16T10:16:17.499Z,73.48022461
2022-10-16T10:17:18.192Z,73.27880859
2022-10-16T10:18:18.687Z,72.77832031
2022-10-16T10:19:19.188Z,71.56982422
2022-10-16T10:20:19.792Z,71.53320313
2022-10-16T10:21:20.723Z,71.83837891
2022-10-16T10:22:22.135Z,72.13745117
2022-10-16T10:23:22.676Z,72.33886719
2022-10-16T10:24:24.107Z,72.33886719
2022-10-16T10:25:24.680Z,71.53320313
2022-10-16T10:26:25.374Z,70.92895508
2022-10-16T10:27:26.082Z,70.92895508
2022-10-16T10:28:26.661Z,71.33178711
2022-10-16T10:29:27.272Z,71.43554688
2022-10-16T10:30:28.153Z,71.03271484
2022-10-16T10:31:28.810Z,69.61669922
2022-10-16T10:32:30.234Z,69.28710938
2022-10-16T10:33:30.596Z,68.57910156
2022-10-16T10:34:31.244Z,68.78051758
2022-10-16T10:35:31.775Z,68.07861328
2022-10-16T10:37:03.647Z,67.97485352
2022-10-16T10:38:04.184Z,67.97485352
2022-10-16T10:39:04.877Z,68.07861328
2022-10-16T10:40:05.582Z,68.57910156
2022-10-16T10:41:06.838Z,67.47436523
2022-10-16T10:42:07.413Z,66.96777344
2022-10-16T10:43:08.020Z,66.56494141
2022-10-16T10:44:09.334Z,66.53442383
2022-10-16T10:45:09.939Z,66.63208008
2022-10-16T10:46:10.713Z,67.03491211
2022-10-16T10:47:11.331Z,67.13867188
2022-10-16T10:48:12.131Z,67.23632813
2022-10-16T10:49:12.685Z,67.23632813
2022-10-16T10:50:14.000Z,67.13867188
2022-10-16T10:51:15.316Z,67.23632813
2022-10-16T10:52:16.059Z,67.23632813
2022-10-16T10:53:16.614Z,66.93725586
2022-10-16T10:54:17.172Z,66.73583984
2022-10-16T10:55:17.974Z,66.83349609
2022-10-16T10:56:18.612Z,67.03491211
2022-10-16T10:57:19.295Z,67.54150391
2022-10-16T10:58:20.490Z,67.74291992
2022-10-16T10:59:21.059Z,67.43774414
2022-10-16T11:00:21.599Z,66.83349609
2022-10-16T11:01:22.834Z,65.52734375
2022-10-16T11:02:23.384Z,65.52734375
2022-10-16T11:03:23.959Z,65.39306641
2022-10-16T11:04:24.512Z,65.59448242
2022-10-16T11:05:25.123Z,65.39306641
2022-10-16T11:06:25.667Z,65.09399414
2022-10-16T11:07:26.423Z,64.69116211
2022-10-16T11:08:27.695Z,65.29541016
2022-10-16T11:09:28.311Z,64.99023438
2022-10-16T11:10:28.883Z,64.89257813
2022-10-16T11:11:30.382Z,64.08691406
2022-10-16T11:12:30.913Z,63.98925781